16. August 2022

Uhrzeit Code Wetter Temp. Sichtweite Wolkendecke Wind METAR/SPECI
14:55
I
20 °C 10 km+ 600 ft 250° 250° 11 kt METAR EHHW 161255Z AUTO 25011KT 210V270 9999 BKN006/// OVC007/// 20/18 Q1008
14:25
I
20 °C 10 km+ 600 ft 240° 240° 8 kt METAR EHHW 161225Z AUTO 24008KT 190V280 9999 BKN006/// OVC007/// 20/18 Q1007
13:55
I
20 °C 10 km+ 600 ft 240° 240° 8 kt METAR EHHW 161155Z AUTO 24008KT 200V290 9999 OVC006/// 20/18 Q1007
13:25
I
20 °C 10 km+ 600 ft 230° 230° 9 kt METAR EHHW 161125Z AUTO 23009KT 200V270 9999 OVC006/// 20/18 Q1007
12:55
I
20 °C 10 km+ 600 ft 220° 220° 10 kt METAR EHHW 161055Z AUTO 22010KT 190V280 9999 BKN006/// OVC008/// 20/18 Q1006
12:25
I
20 °C 10 km+ 800 ft 220° 220° 10 kt METAR EHHW 161025Z AUTO 22010KT 190V260 9999 SCT007/// BKN008/// OVC010/// 20/18 Q1006
11:55
M
20 °C 10 km+ 1.000 ft 210° 210° 11 kt METAR EHHW 160955Z AUTO 21011KT 9999 FEW009/// OVC010/// 20/18 Q1006
11:25
M
21 °C 10 km+ 1.100 ft 210° 210° 8 kt METAR EHHW 160925Z AUTO 21008KT 190V260 9999 FEW009/// BKN011/// OVC014/// 21/18 Q1006
10:55
M
20 °C 10 km+ 1.300 ft 210° 210° 8 kt METAR EHHW 160855Z AUTO 21008KT 9999 FEW009/// BKN013/// 20/18 Q1006
10:25
M
20 °C 10 km+ 1.400 ft 200° 200° 9 kt METAR EHHW 160825Z AUTO 20009KT 9999 FEW010/// BKN014/// 20/18 Q1005
09:55
M
20 °C 10 km+ 1.500 ft 200° 200° 9 kt METAR EHHW 160755Z AUTO 20009KT 9999 FEW011/// BKN015/// BKN018/// 20/18 Q1005
09:25
M
21 °C 10 km+ 1.500 ft 200° 200° 10 kt METAR EHHW 160725Z AUTO 20010KT 9999 FEW011/// BKN015/// 21/18 Q1005
08:55
V
21 °C 10 km+ - 200° 200° 10 kt METAR EHHW 160655Z AUTO 20010KT 9999 FEW016/// 21/18 Q1005
08:25
V
21 °C 10 km+ - 200° 200° 11 kt METAR EHHW 160625Z AUTO 20011KT 9999 NSC 21/18 Q1005
07:55
V
20 °C 10 km+ - 180° 180° 8 kt METAR EHHW 160555Z AUTO 18008KT 9999 NSC 20/18 Q1004
07:25
V
21 °C 10 km+ - 190° 190° 6 kt METAR EHHW 160525Z AUTO 19006KT 9999 NSC 21/18 Q1004
06:55
V
21 °C 10 km+ - 190° 190° 9 kt METAR EHHW 160455Z AUTO 19009KT 9999 NSC 21/18 Q1004
06:25
V
21 °C 10 km+ - 190° 190° 7 kt METAR EHHW 160425Z AUTO 19007KT 9999 NSC 21/18 Q1004
05:55
V
21 °C 10 km+ - 180° 180° 5 kt METAR EHHW 160355Z AUTO 18005KT 9999 FEW039/// 21/17 Q1004
05:25
V
20 °C 10 km+ - 200° 200° 7 kt METAR EHHW 160325Z AUTO 20007KT 9999 FEW035/// 20/17 Q1004
04:55
V
21 °C 10 km+ - 240° 240° 5 kt METAR EHHW 160255Z AUTO 24005KT 200V270 9999 FEW041/// 21/17 Q1004
04:25
V
20 °C 10 km+ - 250° 250° 5 kt METAR EHHW 160225Z AUTO 25005KT 9999 NSC 20/17 Q1005
03:55
V
20 °C 10 km+ - 250° 250° 3 kt METAR EHHW 160155Z AUTO 25003KT 180V280 9999 NSC 20/18 Q1005
03:25
V
20 °C 10 km+ - 240° 240° 4 kt METAR EHHW 160125Z AUTO 24004KT 210V270 9999 NSC 20/18 Q1005
02:55
V
21 °C 10 km+ - 240° 240° 6 kt METAR EHHW 160055Z AUTO 24006KT 210V270 9999 NSC 21/17 Q1005
02:25
V
20 °C 10 km+ - 240° 240° 7 kt METAR EHHW 160025Z AUTO 24007KT 200V280 9999 NSC 20/18 Q1005
01:55
V
20 °C 10 km+ - 230° 230° 5 kt METAR EHHW 152355Z AUTO 23005KT 190V280 9999 NSC 20/18 Q1005
01:25
V
20 °C 10 km+ - 220° 220° 8 kt METAR EHHW 152325Z AUTO 22008KT 190V260 9999 NSC 20/18 Q1005
00:55
V
20 °C 10 km+ - 220° 220° 9 kt METAR EHHW 152255Z AUTO 22009KT 9999 NSC 20/18 Q1005
00:25
V
20 °C 10 km+ - 250° 250° 6 kt METAR EHHW 152225Z AUTO 25006KT 200V280 9999 NSC 20/18 Q1005

15. August 2022

Uhrzeit Code Wetter Temp. Sichtweite Wolkendecke Wind METAR/SPECI
23:55
V
20 °C 10 km+ - 230° 230° 4 kt METAR EHHW 152155Z AUTO 23004KT 200V280 9999 NSC 20/19 Q1004
23:25
V
20 °C 10 km+ - 230° 230° 5 kt METAR EHHW 152125Z AUTO 23005KT 190V260 9999 NSC 20/19 Q1005
22:55
V
20 °C 10 km+ - 220° 220° 6 kt METAR EHHW 152055Z AUTO 22006KT 190V260 9999 NSC 20/19 Q1005
22:25
V
20 °C 10 km+ - 220° 220° 7 kt METAR EHHW 152025Z AUTO 22007KT 190V290 9999 NSC 20/18 Q1005
21:55
V
20 °C 10 km+ - 210° 210° 8 kt METAR EHHW 151955Z AUTO 21008KT 9999 NSC 20/18 Q1004
21:25
V
20 °C 10 km+ - 210° 210° 9 kt METAR EHHW 151925Z AUTO 21009KT 9999 NSC 20/18 Q1004
20:55
V
21 °C 10 km+ - 210° 210° 7 kt METAR EHHW 151855Z AUTO 21007KT 9999 NSC 21/17 Q1004
20:25
V
21 °C 10 km+ - 220° 220° 9 kt METAR EHHW 151825Z AUTO 22009KT 9999 NSC 21/17 Q1004
19:55
V
21 °C 10 km+ - 230° 230° 6 kt METAR EHHW 151755Z AUTO 23006KT 190V280 9999 NSC 21/17 Q1003
19:25
V
21 °C 10 km+ - 220° 220° 9 kt METAR EHHW 151725Z AUTO 22009KT 200V260 9999 NSC 21/18 Q1003
18:55
V
21 °C 10 km+ - 220° 220° 8 kt METAR EHHW 151655Z AUTO 22008KT 190V260 9999 NSC 21/19 Q1003
18:25
V
21 °C 10 km+ - 170° 170° 8 kt METAR EHHW 151625Z AUTO 17008KT 9999 NSC 21/19 Q1003
17:55
V
22 °C 10 km+ - 150° 150° 5 kt METAR EHHW 151555Z AUTO 15005KT 090V200 9999 NSC 22/18 Q1003
17:25
V
22 °C 10 km+ - 150° 150° 5 kt METAR EHHW 151525Z AUTO 15005KT 080V240 9999 NSC 22/17 Q1003
16:55
V
22 °C 10 km+ - 150° 150° 5 kt METAR EHHW 151455Z AUTO 15005KT 100V200 9999 NSC 22/18 Q1003
16:25
V
22 °C 10 km+ - 150° 150° 5 kt METAR EHHW 151425Z AUTO 15005KT 090V230 9999 NSC 22/18 Q1003
15:55
V
23 °C 10 km+ - 140° 140° 11 kt METAR EHHW 151355Z AUTO 14011KT 110V190 9999 NSC 23/17 Q1003
15:25
V
23 °C 10 km+ - 140° 140° 10 kt METAR EHHW 151325Z AUTO 14010KT 100V220 9999 NSC 23/17 Q1003
14:55
V
23 °C 10 km+ - 140° 140° 11 kt METAR EHHW 151255Z AUTO 14011KT 090V200 9999 NSC 23/16 Q1003
14:25
V
22 °C 10 km+ - 140° 140° 8 kt METAR EHHW 151225Z AUTO 14008KT 090V200 9999 NSC 22/17 Q1003
13:55
V
22 °C 10 km+ - 130° 130° 8 kt METAR EHHW 151155Z AUTO 13008KT 070V150 9999 NSC 22/17 Q1003
13:25
V
22 °C 10 km+ - 120° 120° 9 kt METAR EHHW 151125Z AUTO 12009KT 070V150 9999 NSC 22/17 Q1003
12:55
V
22 °C 10 km+ - 130° 130° 8 kt METAR EHHW 151055Z AUTO 13008KT 080V160 9999 NSC 22/17 Q1003
12:25
V
22 °C 10 km+ - 120° 120° 11 kt METAR EHHW 151025Z AUTO 12011KT 070V170 9999 NSC 22/17 Q1003
11:55
V
23 °C 10 km+ - 130° 130° 12 kt METAR EHHW 150955Z AUTO 13012KT 070V200 9999 NSC 23/16 Q1003
11:25
V
22 °C 10 km+ - 120° 120° 11 kt METAR EHHW 150925Z AUTO 12011KT 060V170 9999 NSC 22/17 Q1003
10:55
V
21 °C 10 km+ - 110° 110° 10 kt METAR EHHW 150855Z AUTO 11010KT 070V140 9999 NSC 21/18 Q1003
10:25
V
21 °C 10 km+ - 100° 100° 11 kt METAR EHHW 150825Z AUTO 10011KT 080V140 9999 NSC 21/18 Q1003
09:55
V
21 °C 10 km+ - 100° 100° 9 kt METAR EHHW 150755Z AUTO 10009KT 060V140 9999 NSC 21/17 Q1003
09:25
V
21 °C 10 km+ - 090° 090° 9 kt METAR EHHW 150725Z AUTO 09009KT 050V120 9999 NSC 21/17 Q1003
08:55
V
21 °C 10 km+ - 100° 100° 9 kt METAR EHHW 150655Z AUTO 10009KT 070V130 9999 NSC 21/17 Q1003
08:25
V
21 °C 10 km+ - 100° 100° 10 kt METAR EHHW 150625Z AUTO 10010KT 060V120 9999 NSC 21/17 Q1003
07:55
V
22 °C 10 km+ - 100° 100° 16 kt METAR EHHW 150555Z AUTO 10016KT 9999 NSC 22/17 Q1003
07:25
V
22 °C 10 km+ - 100° 100° 12 kt METAR EHHW 150525Z AUTO 10012KT 060V120 9999 NSC 22/17 Q1003
06:55
V
23 °C 10 km+ - 100° 100° 13 kt METAR EHHW 150455Z AUTO 10013KT 070V130 9999 NSC 23/16 Q1003
06:25
V
23 °C 10 km+ - 090° 090° 14 kt METAR EHHW 150425Z AUTO 09014KT 050V150 9999 NSC 23/16 Q1003
05:55
V
23 °C 10 km+ - 090° 090° 12 kt METAR EHHW 150355Z AUTO 09012KT 030V150 9999 NSC 23/16 Q1003
05:25
V
22 °C 10 km+ - 110° 110° 13 kt METAR EHHW 150325Z AUTO 11013KT 060V130 9999 NSC 22/17 Q1003
04:55
V
22 °C 10 km+ - 090° 090° 15 kt METAR EHHW 150255Z AUTO 09015KT 050V120 9999 NSC 22/16 Q1003
04:25
V
23 °C 10 km+ - 110° 110° 11 kt METAR EHHW 150225Z AUTO 11011KT 070V140 9999 NSC 23/17 Q1004
03:55
V
24 °C 10 km+ - 120° 120° 13 kt METAR EHHW 150155Z AUTO 12013KT 070V190 9999 NSC 24/17 Q1004
03:25
V
22 °C 10 km+ - 100° 100° 9 kt METAR EHHW 150125Z AUTO 10009KT 060V140 9999 NSC 22/18 Q1004
02:55
V
22 °C 10 km+ - 100° 100° 10 kt METAR EHHW 150055Z AUTO 10010KT 9999 NSC 22/18 Q1004
02:25
V
23 °C 10 km+ - 140° 140° 7 kt METAR EHHW 150025Z AUTO 14007KT 090V240 9999 NSC 23/18 Q1004
01:55
V
22 °C 10 km+ - 140° 140° 9 kt METAR EHHW 142355Z AUTO 14009KT 060V210 9999 NSC 22/18 Q1005
01:25
V
23 °C 10 km+ - 090° 090° 7 kt METAR EHHW 142325Z AUTO 09007KT 010V160 9999 NSC 23/18 Q1005
00:55
V
23 °C 10 km+ - 090° 090° 7 kt METAR EHHW 142255Z AUTO 09007KT 050V160 9999 NSC 23/18 Q1005
00:25
V
23 °C 10 km+ - 100° 100° 12 kt METAR EHHW 142225Z AUTO 10012KT 050V190 9999 NSC 23/18 Q1005

14. August 2022

Uhrzeit Code Wetter Temp. Sichtweite Wolkendecke Wind METAR/SPECI
23:55
V
22 °C 10 km+ - 090° 090° 12 kt METAR EHHW 142155Z AUTO 09012KT 050V140 9999 NSC 22/18 Q1005
23:25
V
23 °C 10 km+ - 090° 090° 12 kt METAR EHHW 142125Z AUTO 09012KT 050V130 9999 NSC 23/18 Q1006
22:55
V
23 °C 10 km+ - 090° 090° 11 kt METAR EHHW 142055Z AUTO 09011KT 360V140 9999 NSC 23/18 Q1006
22:25
V
22 °C 10 km+ - 090° 090° 13 kt METAR EHHW 142025Z AUTO 09013KT 050V130 9999 NSC 22/18 Q1006
21:55
V
22 °C 10 km+ - 090° 090° 13 kt METAR EHHW 141955Z AUTO 09013KT 050V120 9999 NSC 22/18 Q1006
21:25
V
22 °C 10 km+ - 090° 090° 13 kt METAR EHHW 141925Z AUTO 09013KT 050V110 9999 NSC 22/19 Q1006
20:55
V
22 °C 10 km+ - 080° 080° 16 kt METAR EHHW 141855Z AUTO 08016KT 9999 NSC 22/19 Q1006
20:25
V
23 °C 10 km+ - 080° 080° 14 kt METAR EHHW 141825Z AUTO 08014KT 050V110 9999 NSC 23/18 Q1006
19:55
V
23 °C 10 km+ - 080° 080° 13 kt METAR EHHW 141755Z AUTO 08013KT 050V130 9999 NSC 23/18 Q1006
19:25
V
22 °C 10 km+ - 080° 080° 14 kt METAR EHHW 141725Z AUTO 08014KT 060V120 9999 NSC 22/18 Q1007
18:55
V
23 °C 10 km+ - 080° 080° 12 kt METAR EHHW 141655Z AUTO 08012KT 010V160 9999 NSC 23/17 Q1007
18:25
V
22 °C 10 km+ - 080° 080° 13 kt METAR EHHW 141625Z AUTO 08013KT 030V120 9999 NSC 22/17 Q1007
17:55
V
22 °C 10 km+ - 080° 080° 12 kt METAR EHHW 141555Z AUTO 08012KT 050V170 9999 NSC 22/17 Q1007
17:25
V
21 °C 10 km+ - 080° 080° 12 kt METAR EHHW 141525Z AUTO 08012KT 020V120 9999 NSC 21/18 Q1008
16:55
V
21 °C 10 km+ - 080° 080° 12 kt METAR EHHW 141455Z AUTO 08012KT 040V130 9999 NSC 21/18 Q1008
16:25
V
21 °C 10 km+ - 080° 080° 12 kt METAR EHHW 141425Z AUTO 08012KT 030V130 9999 NCD 21/18 Q1008
15:55
V
21 °C 10 km+ - 080° 080° 11 kt METAR EHHW 141355Z AUTO 08011KT 030V110 9999 NCD 21/18 Q1009
15:25
V
21 °C 10 km+ - 080° 080° 12 kt METAR EHHW 141325Z AUTO 08012KT 050V130 9999 NCD 21/18 Q1009
14:55
V
21 °C 10 km+ - 080° 080° 12 kt METAR EHHW 141255Z AUTO 08012KT 050V120 9999 NCD 21/18 Q1009
Ältere Daten

Wir und Dritte verfolgen dein Internetverhalten auf unserer Website mit Cookies. Wenn du fortfährst, gehen wir davon aus, dass du mit unserer Cookie-Richtlinie einverstanden bist. Mehr erfahren